createdAt,value
2022-12-08T00:01:12.511Z,94941.81
2022-12-08T00:03:39.900Z,94950.34
2022-12-08T00:06:31.553Z,94945.94
2022-12-08T00:09:17.101Z,94950.03
2022-12-08T00:11:44.015Z,94947.16
2022-12-08T00:14:10.744Z,94960.56
2022-12-08T00:16:37.670Z,94969.97
2022-12-08T00:19:04.506Z,94974.63
2022-12-08T00:21:31.434Z,94974.06
2022-12-08T00:23:58.188Z,94969.09
2022-12-08T00:26:25.072Z,94970.28
2022-12-08T00:28:51.852Z,94970.47
2022-12-08T00:31:18.893Z,94973.78
2022-12-08T00:33:45.839Z,94982.78
2022-12-08T00:36:14.750Z,94977.63
2022-12-08T00:38:41.914Z,94972.78
2022-12-08T00:41:40.735Z,94981.66
2022-12-08T00:44:08.540Z,94989.06
2022-12-08T00:46:36.299Z,94998.88
2022-12-08T00:49:04.493Z,95000.91
2022-12-08T00:51:31.940Z,94994.84
2022-12-08T00:53:58.807Z,94985.59
2022-12-08T00:56:26.436Z,94990.31
2022-12-08T00:58:53.334Z,94993.66
2022-12-08T01:01:20.439Z,94990.59
2022-12-08T01:03:47.873Z,94973.88
2022-12-08T01:06:14.777Z,94977.84
2022-12-08T01:08:42.326Z,94970.41
2022-12-08T01:11:17.886Z,94976.72
2022-12-08T01:13:45.689Z,94985.50
2022-12-08T01:16:24.111Z,94993.75
2022-12-08T01:18:51.107Z,94992.34
2022-12-08T01:21:18.919Z,94992.72
2022-12-08T01:23:46.304Z,94996.91
2022-12-08T01:26:15.142Z,94993.00
2022-12-08T01:28:42.761Z,94987.44
2022-12-08T01:31:15.481Z,94992.81
2022-12-08T01:33:42.985Z,94983.91
2022-12-08T01:36:20.431Z,94980.72
2022-12-08T01:38:47.377Z,94982.84
2022-12-08T01:41:16.960Z,94982.84
2022-12-08T01:44:24.022Z,94978.88
2022-12-08T01:46:53.644Z,94976.34
2022-12-08T01:49:30.823Z,94965.38
2022-12-08T01:52:06.369Z,94950.59
2022-12-08T01:54:39.266Z,94957.38
2022-12-08T01:57:15.409Z,94962.78
2022-12-08T02:02:42.047Z,94949.06
2022-12-08T02:05:10.043Z,94949.94
2022-12-08T02:07:37.584Z,94946.16
2022-12-08T02:10:05.409Z,94950.31
2022-12-08T02:12:32.764Z,94951.84
2022-12-08T02:15:04.736Z,94963.91
2022-12-08T02:17:53.603Z,94955.59
2022-12-08T02:20:59.258Z,94951.34
2022-12-08T02:23:36.121Z,94958.25
2022-12-08T02:26:05.615Z,94950.47
2022-12-08T02:28:58.608Z,94947.63
2022-12-08T02:31:37.346Z,94952.16
2022-12-08T02:34:36.342Z,94942.69
2022-12-08T02:37:20.080Z,94949.19
2022-12-08T02:39:52.762Z,94955.03
2022-12-08T02:42:31.587Z,94932.09
2022-12-08T02:45:09.590Z,94958.53
2022-12-08T02:47:37.055Z,94953.44
2022-12-08T02:50:04.517Z,94930.53
2022-12-08T02:52:31.558Z,94923.19
2022-12-08T02:55:14.413Z,94929.94
2022-12-08T02:57:59.060Z,94939.13
2022-12-08T03:00:29.670Z,94946.94
2022-12-08T03:03:33.755Z,94937.78
2022-12-08T03:06:36.930Z,94944.94
2022-12-08T03:09:12.544Z,94950.78
2022-12-08T03:11:49.974Z,94957.88
2022-12-08T03:14:18.195Z,94954.44
2022-12-08T03:16:49.843Z,94952.31
2022-12-08T03:19:21.053Z,94946.34
2022-12-08T03:21:52.615Z,94939.25
2022-12-08T03:24:22.936Z,94946.00
2022-12-08T03:26:59.982Z,94943.88
2022-12-08T03:29:27.078Z,94939.44
2022-12-08T03:32:01.493Z,94926.31
2022-12-08T03:34:30.041Z,94933.47
2022-12-08T03:36:56.876Z,94947.66
2022-12-08T03:39:24.450Z,94944.94
2022-12-08T03:41:51.217Z,94947.47
2022-12-08T03:44:18.084Z,94955.03
2022-12-08T03:46:45.864Z,94956.78
2022-12-08T03:49:12.628Z,94953.19
2022-12-08T03:51:39.600Z,94965.63
2022-12-08T03:54:06.385Z,94955.56
2022-12-08T03:56:38.506Z,94964.03
2022-12-08T03:59:06.620Z,94956.78
2022-12-08T04:01:33.721Z,94965.41
2022-12-08T04:04:00.699Z,94963.47
2022-12-08T04:06:27.424Z,94950.78
2022-12-08T04:08:54.532Z,94943.00
2022-12-08T04:11:22.016Z,94945.69
2022-12-08T04:13:49.059Z,94968.44
2022-12-08T04:16:26.710Z,94964.13
2022-12-08T04:18:53.960Z,94963.94
2022-12-08T04:21:20.766Z,94963.00
2022-12-08T04:23:48.003Z,94962.34
2022-12-08T04:26:15.159Z,94956.00
2022-12-08T04:28:42.020Z,94961.19
2022-12-08T04:31:08.998Z,94957.78
2022-12-08T04:33:36.183Z,94967.63
2022-12-08T04:36:05.014Z,94971.38
2022-12-08T04:38:32.788Z,94980.31
2022-12-08T04:40:59.632Z,94964.84
2022-12-08T04:43:26.471Z,94966.75
2022-12-08T04:45:53.250Z,94977.72
2022-12-08T04:48:20.287Z,94972.84
2022-12-08T04:50:47.262Z,94977.59
2022-12-08T04:53:14.439Z,94968.78
2022-12-08T04:55:43.819Z,94975.34
2022-12-08T04:58:20.508Z,94979.09
2022-12-08T05:00:47.965Z,94973.63
2022-12-08T05:03:15.613Z,94972.03
2022-12-08T05:05:43.566Z,94980.28
2022-12-08T05:08:11.022Z,94979.94
2022-12-08T05:10:38.126Z,94978.72
2022-12-08T05:13:04.958Z,94988.56
2022-12-08T05:15:31.802Z,94983.09
2022-12-08T05:17:58.642Z,94985.72
2022-12-08T05:20:25.478Z,94985.63
2022-12-08T05:23:10.997Z,95000.69
2022-12-08T05:25:38.342Z,94996.72
2022-12-08T05:28:32.692Z,95005.09
2022-12-08T05:30:52.497Z,95010.53
2022-12-08T05:33:20.339Z,95005.56
2022-12-08T05:35:47.149Z,94994.81
2022-12-08T05:38:14.085Z,95007.59
2022-12-08T05:40:41.862Z,95016.16
2022-12-08T05:43:10.075Z,95014.16
2022-12-08T05:45:37.026Z,94991.63
2022-12-08T05:48:04.289Z,95012.78
2022-12-08T05:50:31.189Z,95023.91
2022-12-08T05:52:58.303Z,95017.22
2022-12-08T05:55:25.146Z,95001.72
2022-12-08T05:57:51.948Z,95015.53
2022-12-08T06:00:19.371Z,95013.03
2022-12-08T06:02:46.665Z,95009.84
2022-12-08T06:05:13.405Z,95008.50
2022-12-08T06:07:40.191Z,95018.09
2022-12-08T06:10:07.733Z,95012.00
2022-12-08T06:12:34.672Z,95008.84
2022-12-08T06:15:01.424Z,95013.25
2022-12-08T06:17:28.669Z,95019.94
2022-12-08T06:19:55.462Z,95024.81
2022-12-08T06:22:22.346Z,95021.19
2022-12-08T06:24:49.157Z,95034.66
2022-12-08T06:27:15.897Z,95040.75
2022-12-08T06:29:42.804Z,95040.88
2022-12-08T06:32:09.674Z,95033.84
2022-12-08T06:34:36.451Z,95037.91
2022-12-08T06:37:03.302Z,95034.63
2022-12-08T06:39:30.063Z,95048.28
2022-12-08T06:42:15.719Z,95046.34
2022-12-08T06:44:42.659Z,95043.91
2022-12-08T06:47:09.418Z,95030.00
2022-12-08T06:49:36.176Z,95039.72
2022-12-08T06:52:03.097Z,95030.31
2022-12-08T06:54:29.897Z,95019.88
2022-12-08T06:56:56.835Z,95026.50
2022-12-08T06:59:26.021Z,95021.38
2022-12-08T07:01:52.960Z,95017.63
2022-12-08T07:04:19.760Z,95027.06
2022-12-08T07:06:46.673Z,95036.19
2022-12-08T07:09:13.490Z,95027.44
2022-12-08T07:11:40.249Z,95036.47
2022-12-08T07:14:07.114Z,95047.13
2022-12-08T07:16:34.203Z,95051.94
2022-12-08T07:19:01.103Z,95046.88
2022-12-08T07:21:27.847Z,95050.81
2022-12-08T07:23:57.928Z,95045.16
2022-12-08T07:26:25.355Z,95051.03
2022-12-08T07:28:52.176Z,95058.03
2022-12-08T07:31:21.986Z,95067.06
2022-12-08T07:33:50.275Z,95068.69
2022-12-08T07:36:17.352Z,95072.56
2022-12-08T07:38:44.671Z,95068.91
2022-12-08T07:41:13.572Z,95075.25
2022-12-08T07:43:40.895Z,95068.44
2022-12-08T07:46:08.312Z,95056.69
2022-12-08T07:48:35.264Z,95066.53
2022-12-08T07:51:04.409Z,95060.94
2022-12-08T07:53:31.964Z,95058.41
2022-12-08T07:55:59.797Z,95069.41
2022-12-08T07:58:27.749Z,95069.19
2022-12-08T08:00:54.718Z,95067.44
2022-12-08T08:03:22.489Z,95053.34
2022-12-08T08:05:50.296Z,95056.25
2022-12-08T08:08:18.234Z,95054.47
2022-12-08T08:10:46.305Z,95065.13
2022-12-08T08:13:14.165Z,95054.97
2022-12-08T08:15:40.976Z,95057.91
2022-12-08T08:18:07.985Z,95057.50
2022-12-08T08:20:34.764Z,95067.03
2022-12-08T08:23:01.529Z,95067.56
2022-12-08T08:25:28.333Z,95067.16
2022-12-08T08:27:56.116Z,95074.06
2022-12-08T08:30:24.146Z,95070.56
2022-12-08T08:32:51.001Z,95066.88
2022-12-08T08:35:18.330Z,95050.97
2022-12-08T08:37:48.862Z,95055.47
2022-12-08T08:40:17.729Z,95062.06
2022-12-08T08:42:44.527Z,95066.63
2022-12-08T08:45:12.449Z,95065.59
2022-12-08T08:47:39.201Z,95069.19
2022-12-08T08:50:07.248Z,95060.31
2022-12-08T08:52:34.388Z,95052.59
2022-12-08T08:55:01.097Z,95060.25
2022-12-08T08:57:28.062Z,95050.00
2022-12-08T08:59:55.953Z,95046.56
2022-12-08T09:02:22.686Z,95039.69
2022-12-08T09:04:49.733Z,95034.59
2022-12-08T09:07:16.592Z,95024.28
2022-12-08T09:09:43.811Z,95030.16
2022-12-08T09:12:10.803Z,95025.47
2022-12-08T09:14:37.630Z,95024.22
2022-12-08T09:17:05.049Z,95009.22
2022-12-08T09:19:32.751Z,95015.28
2022-12-08T09:21:59.516Z,94999.75
2022-12-08T09:24:27.225Z,95002.38
2022-12-08T09:26:54.232Z,94990.84
2022-12-08T09:29:39.649Z,94998.19
2022-12-08T09:32:07.495Z,94990.56
2022-12-08T09:34:34.276Z,95003.94
2022-12-08T09:37:01.274Z,94998.19
2022-12-08T09:39:28.275Z,95002.34
2022-12-08T09:42:00.165Z,94984.53
2022-12-08T09:44:47.900Z,94989.00
2022-12-08T09:47:37.389Z,95001.31
2022-12-08T09:50:12.519Z,95001.72
2022-12-08T09:52:49.895Z,94986.88
2022-12-08T09:55:25.584Z,94988.72
2022-12-08T09:58:03.062Z,94980.78
2022-12-08T10:00:30.090Z,94955.09
2022-12-08T10:02:57.719Z,94974.28
2022-12-08T10:05:28.257Z,94971.66
2022-12-08T10:08:26.381Z,94960.88
2022-12-08T10:11:02.424Z,94955.31
2022-12-08T10:14:08.661Z,94957.16
2022-12-08T10:16:46.270Z,94939.78
2022-12-08T10:19:21.353Z,94936.84
2022-12-08T10:21:49.114Z,94935.41
2022-12-08T10:24:31.570Z,94939.63
2022-12-08T10:26:59.146Z,94942.06
2022-12-08T10:29:25.947Z,94953.59
2022-12-08T10:31:52.970Z,94944.81
2022-12-08T10:34:24.199Z,94941.81
2022-12-08T10:36:57.076Z,94938.44
2022-12-08T10:39:40.640Z,94921.97
2022-12-08T10:42:14.997Z,94927.34
2022-12-08T10:45:09.327Z,94924.44
2022-12-08T10:47:44.766Z,94934.41
2022-12-08T10:50:23.523Z,94912.72
2022-12-08T10:53:08.302Z,94912.22
2022-12-08T10:56:01.314Z,94913.63
2022-12-08T10:58:41.603Z,94910.66
2022-12-08T11:01:21.649Z,94904.59
2022-12-08T11:03:55.762Z,94911.56
2022-12-08T11:06:22.842Z,94906.09
2022-12-08T11:08:53.988Z,94900.28
2022-12-08T11:11:27.687Z,94885.25
2022-12-08T11:13:56.605Z,94892.81
2022-12-08T11:16:23.738Z,94893.53
2022-12-08T11:19:06.974Z,94885.59
2022-12-08T11:21:37.264Z,94883.97
2022-12-08T11:24:23.578Z,94884.56
2022-12-08T11:27:02.548Z,94870.56
2022-12-08T11:29:32.756Z,94865.53
2022-12-08T11:32:02.080Z,94860.28
2022-12-08T11:35:05.927Z,94862.09
2022-12-08T11:37:43.464Z,94858.91
2022-12-08T11:40:23.461Z,94849.72
2022-12-08T11:43:17.915Z,94854.09
2022-12-08T11:45:46.489Z,94863.00
2022-12-08T11:48:16.169Z,94854.66
2022-12-08T11:50:52.009Z,94847.47
2022-12-08T11:53:43.503Z,94847.56
2022-12-08T11:56:20.403Z,94843.41
2022-12-08T11:58:55.930Z,94840.38
2022-12-08T12:01:25.500Z,94838.31
2022-12-08T12:04:29.035Z,94831.16
2022-12-08T12:07:01.720Z,94822.63
2022-12-08T12:09:47.435Z,94816.97
2022-12-08T12:12:39.294Z,94818.63
2022-12-08T12:15:56.698Z,94834.56
2022-12-08T12:18:32.374Z,94820.41
2022-12-08T12:21:07.395Z,94821.66
2022-12-08T12:23:44.997Z,94831.31
2022-12-08T12:26:21.392Z,94824.50
2022-12-08T12:28:52.664Z,94819.03
2022-12-08T12:31:25.244Z,94818.59
2022-12-08T12:33:57.154Z,94812.22
2022-12-08T12:36:25.544Z,94774.88
2022-12-08T12:39:01.408Z,94797.97
2022-12-08T12:41:51.218Z,94798.91
2022-12-08T12:44:18.062Z,94805.28
2022-12-08T12:46:50.508Z,94798.28
2022-12-08T12:49:38.933Z,94801.91
2022-12-08T12:52:15.248Z,94806.28
2022-12-08T12:55:04.706Z,94808.31
2022-12-08T12:57:40.424Z,94803.91
2022-12-08T13:00:17.425Z,94792.03
2022-12-08T13:02:44.477Z,94797.91
2022-12-08T13:05:20.343Z,94799.72
2022-12-08T13:08:02.399Z,94789.78
2022-12-08T13:10:42.144Z,94782.28
2022-12-08T13:13:16.377Z,94793.59
2022-12-08T13:15:56.229Z,94802.16
2022-12-08T13:18:36.773Z,94799.13
2022-12-08T13:21:08.437Z,94778.81
2022-12-08T13:23:38.119Z,94787.59
2022-12-08T13:26:27.228Z,94768.59
2022-12-08T13:29:01.264Z,94793.22
2022-12-08T13:31:51.113Z,94787.81
2022-12-08T13:34:39.456Z,94788.16
2022-12-08T13:37:06.422Z,94784.09
2022-12-08T13:40:05.994Z,94783.19
2022-12-08T13:43:02.033Z,94775.38
2022-12-08T13:46:18.276Z,94794.28
2022-12-08T13:49:09.958Z,94779.66
2022-12-08T13:57:27.426Z,94788.06
2022-12-08T13:59:54.417Z,94786.06
2022-12-08T14:02:34.426Z,94793.38
2022-12-08T14:05:18.280Z,94803.50
2022-12-08T14:07:48.515Z,94810.53
2022-12-08T14:10:27.374Z,94795.06
2022-12-08T14:13:00.909Z,94790.81
2022-12-08T14:15:31.380Z,94807.38
2022-12-08T14:18:03.476Z,94802.50
2022-12-08T14:20:33.816Z,94800.50
2022-12-08T14:23:09.756Z,94812.69
2022-12-08T14:25:37.341Z,94803.50
2022-12-08T14:28:04.995Z,94794.38
2022-12-08T14:30:33.572Z,94804.38
2022-12-08T14:33:02.638Z,94801.59
2022-12-08T14:35:37.903Z,94805.84
2022-12-08T14:38:19.525Z,94804.28
2022-12-08T14:40:48.279Z,94800.06
2022-12-08T14:43:20.504Z,94796.19
2022-12-08T14:45:50.841Z,94797.59
2022-12-08T14:48:38.883Z,94786.72
2022-12-08T14:51:21.006Z,94801.44
2022-12-08T14:53:52.198Z,94785.19
2022-12-08T14:56:28.819Z,94793.81
2022-12-08T14:59:37.899Z,94794.78
2022-12-08T15:02:19.419Z,94802.75
2022-12-08T15:04:48.802Z,94805.69
2022-12-08T15:07:23.020Z,94797.50
2022-12-08T15:10:25.554Z,94790.75
2022-12-08T15:13:01.400Z,94801.88
2022-12-08T15:15:29.566Z,94800.31
2022-12-08T15:18:12.821Z,94804.22
2022-12-08T15:20:44.007Z,94798.94
2022-12-08T15:23:44.783Z,94801.44
2022-12-08T15:26:24.093Z,94814.22
2022-12-08T15:28:53.074Z,94816.97
2022-12-08T15:31:20.331Z,94835.28
2022-12-08T15:33:47.628Z,94833.72
2022-12-08T15:36:14.451Z,94832.00
2022-12-08T15:38:42.930Z,94825.19
2022-12-08T15:41:14.581Z,94822.13
2022-12-08T15:43:42.386Z,94827.41
2022-12-08T15:46:09.223Z,94813.66
2022-12-08T15:48:37.872Z,94827.78
2022-12-08T15:51:04.865Z,94826.84
2022-12-08T15:53:31.597Z,94836.56
2022-12-08T15:58:56.122Z,94828.47
2022-12-08T16:01:24.259Z,94832.22
2022-12-08T16:09:32.675Z,94818.94
2022-12-08T16:12:18.207Z,94817.44
2022-12-08T16:17:33.162Z,94815.53
2022-12-08T16:20:01.217Z,94832.44
2022-12-08T16:25:19.254Z,94856.28
2022-12-08T16:30:36.691Z,94850.84
2022-12-08T16:33:05.149Z,94850.00
2022-12-08T16:35:32.432Z,94839.47
2022-12-08T16:37:59.296Z,94853.72
2022-12-08T16:40:26.255Z,94837.94
2022-12-08T16:42:53.212Z,94843.16
2022-12-08T16:45:28.644Z,94852.38
2022-12-08T16:47:58.393Z,94843.25
2022-12-08T16:50:28.093Z,94861.03
2022-12-08T16:53:04.040Z,94859.25
2022-12-08T16:55:32.354Z,94857.41
2022-12-08T16:57:59.761Z,94840.59
2022-12-08T17:00:29.032Z,94851.66
2022-12-08T17:02:56.838Z,94845.84
2022-12-08T17:05:25.539Z,94839.53
2022-12-08T17:07:53.861Z,94845.22
2022-12-08T17:10:23.991Z,94841.13
2022-12-08T17:12:51.268Z,94845.81
2022-12-08T17:15:21.354Z,94854.53
2022-12-08T17:17:48.852Z,94860.84
2022-12-08T17:20:21.852Z,94843.78
2022-12-08T17:22:49.434Z,94838.00
2022-12-08T17:25:16.547Z,94850.03
2022-12-08T17:27:43.475Z,94853.75
2022-12-08T17:30:15.093Z,94858.19
2022-12-08T17:32:42.933Z,94851.13
2022-12-08T17:35:10.047Z,94860.03
2022-12-08T17:37:36.894Z,94854.00
2022-12-08T17:40:04.933Z,94846.28
2022-12-08T17:42:31.910Z,94851.84
2022-12-08T17:44:58.859Z,94853.72
2022-12-08T17:47:25.627Z,94856.91
2022-12-08T17:49:52.598Z,94865.28
2022-12-08T17:52:19.519Z,94865.66
2022-12-08T17:54:46.239Z,94867.88
2022-12-08T17:57:13.203Z,94855.84
2022-12-08T17:59:40.442Z,94859.94
2022-12-08T18:02:10.991Z,94877.53
2022-12-08T18:04:37.896Z,94872.59
2022-12-08T18:07:04.780Z,94866.81
2022-12-08T18:09:31.545Z,94881.25
2022-12-08T18:11:58.484Z,94879.75
2022-12-08T18:14:25.338Z,94867.94
2022-12-08T18:16:56.194Z,94887.34
2022-12-08T18:19:26.621Z,94890.91
2022-12-08T18:21:53.567Z,94895.63
2022-12-08T18:24:23.284Z,94894.59
2022-12-08T18:26:52.364Z,94887.75
2022-12-08T18:29:21.157Z,94885.97
2022-12-08T18:31:48.539Z,94899.44
2022-12-08T18:34:15.831Z,94902.56
2022-12-08T18:36:42.723Z,94907.28
2022-12-08T18:39:24.659Z,94899.97
2022-12-08T18:41:53.424Z,94916.25
2022-12-08T18:44:20.683Z,94924.66
2022-12-08T18:46:47.598Z,94919.38
2022-12-08T18:49:16.624Z,94902.34
2022-12-08T18:51:43.771Z,94884.72
2022-12-08T18:54:12.676Z,94901.25
2022-12-08T18:56:39.642Z,94905.75
2022-12-08T18:59:09.298Z,94900.97
2022-12-08T19:01:38.784Z,94912.56
2022-12-08T19:06:54.839Z,94902.06
2022-12-08T19:09:22.403Z,94904.69
2022-12-08T19:11:49.277Z,94898.66
2022-12-08T19:14:16.338Z,94894.44
2022-12-08T19:16:44.086Z,94885.78
2022-12-08T19:19:11.009Z,94908.34
2022-12-08T19:21:44.609Z,94906.25
2022-12-08T19:24:13.207Z,94902.59
2022-12-08T19:26:40.570Z,94901.28
2022-12-08T19:29:07.488Z,94882.38
2022-12-08T19:31:34.455Z,94905.97
2022-12-08T19:34:01.438Z,94900.53
2022-12-08T19:36:35.308Z,94884.38
2022-12-08T19:39:33.301Z,94890.19
2022-12-08T19:42:18.899Z,94908.25
2022-12-08T19:44:55.149Z,94905.19
2022-12-08T19:47:27.121Z,94927.19
2022-12-08T19:50:15.710Z,94940.25
2022-12-08T19:52:43.584Z,94923.50
2022-12-08T19:55:11.720Z,94931.88
2022-12-08T19:57:39.551Z,94959.91
2022-12-08T20:00:08.519Z,94933.13
2022-12-08T20:02:36.683Z,94933.88
2022-12-08T20:05:05.751Z,94947.31
2022-12-08T20:07:32.557Z,94948.88
2022-12-08T20:09:59.582Z,94942.81
2022-12-08T20:12:26.460Z,94950.66
2022-12-08T20:14:54.310Z,94965.91
2022-12-08T20:17:21.010Z,94961.16
2022-12-08T20:19:47.860Z,94971.19
2022-12-08T20:22:14.776Z,94983.69
2022-12-08T20:24:41.437Z,94986.22
2022-12-08T20:27:08.430Z,94987.56
2022-12-08T20:29:35.162Z,94999.41
2022-12-08T20:32:02.207Z,94983.69
2022-12-08T20:34:30.602Z,94987.88
2022-12-08T20:36:57.473Z,94976.63
2022-12-08T20:39:24.107Z,94958.81
2022-12-08T20:41:52.266Z,94951.25
2022-12-08T20:44:19.124Z,94944.78
2022-12-08T20:46:49.418Z,94963.72
2022-12-08T20:49:17.052Z,94968.59
2022-12-08T20:51:44.533Z,94955.84
2022-12-08T20:54:11.889Z,94960.03
2022-12-08T20:56:42.112Z,94954.75
2022-12-08T20:59:16.824Z,94967.59
2022-12-08T21:01:43.907Z,94960.44
2022-12-08T21:04:12.836Z,94987.38
2022-12-08T21:06:39.695Z,94983.38
2022-12-08T21:09:06.846Z,94964.16
2022-12-08T21:11:33.898Z,94969.63
2022-12-08T21:14:00.673Z,94984.56
2022-12-08T21:16:28.349Z,94982.72
2022-12-08T21:18:55.337Z,94976.59
2022-12-08T21:21:22.354Z,94994.53
2022-12-08T21:23:49.277Z,94999.06
2022-12-08T21:26:19.977Z,94989.16
2022-12-08T21:28:46.963Z,94981.81
2022-12-08T21:31:17.052Z,95007.16
2022-12-08T21:33:44.783Z,94995.50
2022-12-08T21:36:14.707Z,94980.03
2022-12-08T21:38:42.617Z,94990.31
2022-12-08T21:41:11.969Z,94991.31
2022-12-08T21:43:39.725Z,94981.16
2022-12-08T21:46:06.723Z,94982.88
2022-12-08T21:48:33.644Z,94986.50
2022-12-08T21:51:05.387Z,94984.50
2022-12-08T21:53:32.713Z,94995.19
2022-12-08T21:55:59.510Z,94975.72
2022-12-08T21:58:26.528Z,94989.75
2022-12-08T22:00:53.614Z,94981.09
2022-12-08T22:03:20.882Z,94978.13
2022-12-08T22:05:47.786Z,94991.19
2022-12-08T22:08:15.973Z,94988.03
2022-12-08T22:10:47.943Z,94987.75
2022-12-08T22:13:14.933Z,94983.34
2022-12-08T22:15:42.959Z,94986.22
2022-12-08T22:18:11.501Z,94998.00
2022-12-08T22:20:43.884Z,94998.00
2022-12-08T22:23:11.156Z,94999.63
2022-12-08T22:25:38.080Z,94978.47
2022-12-08T22:28:06.029Z,94986.53
2022-12-08T22:30:38.679Z,94997.50
2022-12-08T22:33:06.069Z,95006.53
2022-12-08T22:35:32.751Z,95008.91
2022-12-08T22:37:59.849Z,95022.03
2022-12-08T22:40:26.648Z,94999.94
2022-12-08T22:42:53.401Z,95010.31
2022-12-08T22:45:20.235Z,94997.13
2022-12-08T22:47:47.021Z,95007.59
2022-12-08T22:50:14.086Z,95006.38
2022-12-08T22:52:40.957Z,95011.16
2022-12-08T22:55:08.641Z,95006.19
2022-12-08T22:57:35.428Z,94998.41
2022-12-08T23:00:03.532Z,95005.06
2022-12-08T23:02:30.569Z,94975.47
2022-12-08T23:04:57.701Z,94982.59
2022-12-08T23:07:25.162Z,95000.16
2022-12-08T23:09:52.124Z,94978.88
2022-12-08T23:12:19.139Z,94952.84
2022-12-08T23:14:46.076Z,94968.94
2022-12-08T23:17:13.213Z,94969.16
2022-12-08T23:19:40.258Z,94962.97
2022-12-08T23:22:07.145Z,94971.72
2022-12-08T23:24:33.993Z,94965.91
2022-12-08T23:27:01.130Z,94973.56
2022-12-08T23:29:28.345Z,94958.72
2022-12-08T23:31:55.090Z,94982.56
2022-12-08T23:34:22.252Z,94990.19
2022-12-08T23:36:49.405Z,94988.97
2022-12-08T23:39:16.393Z,95000.53
2022-12-08T23:41:43.356Z,94973.56
2022-12-08T23:44:12.111Z,94977.41
2022-12-08T23:46:39.272Z,94988.44
2022-12-08T23:49:06.766Z,94992.91
2022-12-08T23:51:33.712Z,94975.72
2022-12-08T23:54:00.792Z,94984.91
2022-12-08T23:56:30.516Z,94985.13
2022-12-08T23:58:57.643Z,94976.81
